Time;durP1;ratioP1;P1;durP2;ratioP2;P2;SDS_P1;SDS_P2;PMS_P1;PMS_P2;Temp;Humidity;BMP_temperature;BMP_pressure;BME280_temperature;BME280_humidity;BME280_pressure;Samples;Min_cycle;Max_cycle;Signal;HPM_P1;HPM_P2
2023/07/25 00:00:14;;;;;;;4.40;4.00;;;;;;;17.08;100.00;97122.53;4996789;28;20230;-77
2023/07/25 00:02:40;;;;;;;3.40;3.10;;;;;;;17.08;100.00;97120.66;4998186;28;20211;-77
2023/07/25 00:05:07;;;;;;;4.10;3.30;;;;;;;17.06;100.00;97125.50;4997098;28;20222;-77
2023/07/25 00:07:33;;;;;;;3.20;2.90;;;;;;;17.06;100.00;97127.41;4997695;28;20215;-77
2023/07/25 00:10:00;;;;;;;4.23;3.43;;;;;;;17.04;100.00;97124.19;4997082;28;20238;-77
2023/07/25 00:12:26;;;;;;;5.63;3.00;;;;;;;17.01;100.00;97120.19;4997455;28;20670;-77
2023/07/25 00:14:52;;;;;;;3.40;3.00;;;;;;;17.03;100.00;97115.34;4997572;28;20728;-77
2023/07/25 00:17:19;;;;;;;3.07;2.77;;;;;;;17.00;100.00;97109.72;4997700;28;20675;-77
2023/07/25 00:19:45;;;;;;;3.20;2.73;;;;;;;17.03;100.00;97109.16;4996782;28;20223;-77
2023/07/25 00:22:12;;;;;;;3.43;3.13;;;;;;;17.07;100.00;97111.03;4995549;28;20214;-77
2023/07/25 00:24:38;;;;;;;3.57;2.90;;;;;;;17.08;100.00;97120.66;4997673;28;20238;-77
2023/07/25 00:27:04;;;;;;;3.17;2.87;;;;;;;17.03;100.00;97117.22;4997693;28;20211;-77
2023/07/25 00:29:31;;;;;;;3.37;3.07;;;;;;;17.04;100.00;97111.56;4997643;28;20235;-77
2023/07/25 00:31:57;;;;;;;3.43;3.10;;;;;;;17.00;100.00;97113.22;4996703;28;20568;-77
2023/07/25 00:34:23;;;;;;;3.30;3.00;;;;;;;16.94;100.00;97105.47;4997577;28;20223;-77
2023/07/25 00:36:51;;;;;;;4.70;3.13;;;;;;;16.94;100.00;97103.63;4997620;28;20298;-77
2023/07/25 00:39:17;;;;;;;3.00;2.70;;;;;;;16.97;100.00;97084.22;4996993;28;20234;-77
2023/07/25 00:41:44;;;;;;;3.70;3.37;;;;;;;16.87;100.00;97083.56;4996159;28;20697;-77
2023/07/25 00:44:10;;;;;;;3.97;2.70;;;;;;;16.81;100.00;97085.47;4996352;28;20203;-77
2023/07/25 00:46:36;;;;;;;4.23;2.77;;;;;;;16.77;100.00;97087.09;4995219;28;20200;-77
2023/07/25 00:49:05;;;;;;;2.90;2.50;;;;;;;16.75;100.00;97085.78;4996036;28;20243;-77
2023/07/25 00:51:33;;;;;;;3.07;2.77;;;;;;;16.76;100.00;97088.19;4996431;28;20199;-77
2023/07/25 00:53:59;;;;;;;3.30;3.00;;;;;;;16.67;100.00;97084.50;4996901;28;20343;-77
2023/07/25 00:56:26;;;;;;;4.10;2.80;;;;;;;16.69;100.00;97082.34;4996913;28;20214;-77
2023/07/25 00:58:54;;;;;;;3.23;2.70;;;;;;;16.71;100.00;97084.75;4996347;28;20261;-77
2023/07/25 01:01:22;;;;;;;4.43;3.10;;;;;;;16.66;100.00;97080.22;4995012;28;20662;-77
2023/07/25 01:03:49;;;;;;;3.10;2.90;;;;;;;16.64;100.00;97079.69;4996926;28;20564;-77
2023/07/25 01:06:17;;;;;;;3.70;3.40;;;;;;;16.59;100.00;97081.59;4996661;28;20207;-77
2023/07/25 01:08:53;;;;;;;4.50;3.37;;;;;;;16.58;100.00;97070.09;4996580;28;20231;-77
2023/07/25 01:11:21;;;;;;;5.00;3.80;;;;;;;16.54;100.00;97057.50;4994967;28;20210;-77
2023/07/25 01:13:49;;;;;;;4.97;3.60;;;;;;;16.51;100.00;97069.59;4996335;28;20720;-77
2023/07/25 01:16:18;;;;;;;5.70;3.90;;;;;;;16.50;100.00;97076.06;4996825;28;20218;-77
2023/07/25 01:18:46;;;;;;;5.27;4.00;;;;;;;16.57;100.00;97067.69;4996193;28;20730;-77
2023/07/25 01:21:13;;;;;;;6.60;4.47;;;;;;;16.39;100.00;97073.69;4995605;28;20207;-77
2023/07/25 01:23:41;;;;;;;4.40;4.00;;;;;;;16.39;100.00;97071.81;4996258;28;20574;-77
2023/07/25 01:26:08;;;;;;;4.77;3.90;;;;;;;16.39;100.00;97073.69;4996601;28;20210;-77
2023/07/25 01:28:34;;;;;;;4.30;3.87;;;;;;;16.35;100.00;97068.09;4996043;28;20266;-77
2023/07/25 01:31:00;;;;;;;6.90;4.13;;;;;;;16.35;100.00;97060.03;4995034;28;20207;-77
2023/07/25 01:33:27;;;;;;;4.47;3.90;;;;;;;16.33;100.00;97064.09;4995652;28;20258;-77
2023/07/25 01:35:53;;;;;;;4.47;4.07;;;;;;;16.33;100.00;97064.09;4996289;28;20211;-77
2023/07/25 01:38:19;;;;;;;4.33;3.93;;;;;;;16.34;100.00;97058.44;4996267;28;20223;-77
2023/07/25 01:40:46;;;;;;;6.07;4.30;;;;;;;16.33;100.00;97046.09;4996346;28;20210;-77
2023/07/25 01:43:12;;;;;;;5.83;4.17;;;;;;;16.33;100.00;97037.25;4996483;28;20213;-77
2023/07/25 01:45:38;;;;;;;7.73;3.97;;;;;;;16.34;100.00;97030.81;4996126;28;20203;-77
2023/07/25 01:48:05;;;;;;;5.63;4.40;;;;;;;16.32;100.00;97036.44;4996133;28;20207;-77
2023/07/25 01:50:31;;;;;;;6.70;4.37;;;;;;;16.32;100.00;97033.78;4995571;28;20700;-73
2023/07/25 01:52:58;;;;;;;5.20;4.70;;;;;;;16.26;100.00;97037.59;4995868;28;20218;-73
2023/07/25 01:55:24;;;;;;;5.63;4.87;;;;;;;16.26;100.00;97024.16;4995517;28;20223;-73
2023/07/25 01:57:51;;;;;;;7.03;5.20;;;;;;;16.24;100.00;97015.59;4995773;28;20211;-73
2023/07/25 02:00:17;;;;;;;5.93;5.03;;;;;;;16.18;100.00;97016.72;4995771;28;20233;-73
2023/07/25 02:02:43;;;;;;;6.93;6.10;;;;;;;16.18;100.00;97022.06;4995692;28;20211;-72
2023/07/25 02:05:10;;;;;;;8.27;5.70;;;;;;;16.21;100.00;97021.53;4996541;28;20203;-72
2023/07/25 02:07:37;;;;;;;8.00;5.43;;;;;;;16.24;100.00;97028.22;4995496;28;20218;-72
2023/07/25 02:10:03;;;;;;;5.80;4.97;;;;;;;16.21;100.00;97024.22;4995191;28;20743;-73
2023/07/25 02:12:30;;;;;;;6.27;4.80;;;;;;;16.23;100.00;97022.03;4995533;28;20210;-73
2023/07/25 02:14:56;;;;;;;5.63;5.10;;;;;;;16.30;100.00;97009.13;4995416;28;20223;-73
2023/07/25 02:17:23;;;;;;;5.17;4.67;;;;;;;16.31;100.00;97000.00;4995443;28;20303;-72
2023/07/25 02:19:49;;;;;;;5.20;4.27;;;;;;;16.24;100.00;96991.44;4996058;28;20231;-73
2023/07/25 02:22:15;;;;;;;6.67;4.80;;;;;;;16.23;100.00;96995.22;4995016;28;20692;-73
2023/07/25 02:24:42;;;;;;;6.33;4.80;;;;;;;16.17;100.00;96988.31;4995041;28;20570;-73
2023/07/25 02:27:08;;;;;;;6.33;4.50;;;;;;;16.18;100.00;96992.59;4995256;28;20203;-72
2023/07/25 02:29:34;;;;;;;4.87;4.27;;;;;;;16.12;100.00;96993.72;4995159;28;20262;-72
2023/07/25 02:32:01;;;;;;;4.53;4.13;;;;;;;16.15;100.00;96984.31;4995042;28;20215;-73
2023/07/25 02:34:27;;;;;;;5.67;4.00;;;;;;;16.10;100.00;96976.31;4994762;28;20698;-72
2023/07/25 02:36:53;;;;;;;5.53;4.20;;;;;;;16.11;100.00;96975.22;4995048;28;20237;-72
2023/07/25 02:39:20;;;;;;;4.33;3.93;;;;;;;16.17;100.00;96976.75;4994937;28;20227;-72
2023/07/25 02:41:46;;;;;;;5.03;4.17;;;;;;;16.15;100.00;96978.94;4995011;28;20207;-72
2023/07/25 02:44:12;;;;;;;4.40;4.00;;;;;;;16.05;100.00;96966.41;4994904;28;20210;-73
2023/07/25 02:46:39;;;;;;;4.00;3.60;;;;;;;16.04;100.00;96967.47;4994861;28;20213;-72
2023/07/25 02:49:05;;;;;;;4.50;3.87;;;;;;;16.00;100.00;96966.44;4994710;28;20241;-73
2023/07/25 02:51:33;;;;;;;4.77;4.27;;;;;;;16.03;100.00;96973.94;4994395;28;20212;-72
2023/07/25 02:53:59;;;;;;;4.97;4.07;;;;;;;16.06;100.00;96975.25;4994426;28;20710;-72
2023/07/25 02:56:26;;;;;;;6.13;4.70;;;;;;;16.04;100.00;96988.94;4994726;28;20211;-73
2023/07/25 02:58:53;;;;;;;4.53;4.00;;;;;;;16.13;100.00;96979.22;4994340;28;20245;-72
2023/07/25 03:01:19;;;;;;;5.17;4.03;;;;;;;16.15;100.00;96979.72;4994666;28;20243;-73
2023/07/25 03:03:46;;;;;;;5.10;4.60;;;;;;;16.26;100.00;96975.09;4994808;28;20207;-73
2023/07/25 03:06:12;;;;;;;5.37;3.93;;;;;;;16.29;100.00;96975.31;4994534;28;20207;-72
2023/07/25 03:08:38;;;;;;;7.23;4.27;;;;;;;16.30;100.00;96970.75;4994091;28;20714;-73
2023/07/25 03:11:05;;;;;;;6.07;3.87;;;;;;;16.39;100.00;96967.22;4994490;28;20568;-73
2023/07/25 03:13:31;;;;;;;4.53;3.37;;;;;;;16.36;100.00;96959.72;4994385;28;20207;-72
2023/07/25 03:15:57;;;;;;;4.23;3.50;;;;;;;16.31;100.00;96957.06;4994399;28;20233;-72
2023/07/25 03:18:24;;;;;;;4.17;3.47;;;;;;;16.24;100.00;96956.59;4993096;28;20227;-72
2023/07/25 03:20:50;;;;;;;3.40;3.10;;;;;;;16.28;100.00;96963.00;4994269;28;20214;-72
2023/07/25 03:23:16;;;;;;;3.70;3.07;;;;;;;16.38;100.00;96962.13;4994247;28;20211;-72
2023/07/25 03:25:43;;;;;;;4.33;3.00;;;;;;;16.34;100.00;96953.84;4993770;28;20207;-72
2023/07/25 03:28:09;;;;;;;3.67;3.37;;;;;;;16.37;100.00;96960.53;4993905;28;20669;-72
2023/07/25 03:30:35;;;;;;;4.30;3.10;;;;;;;16.30;100.00;96962.72;4994280;28;20203;-76
2023/07/25 03:33:02;;;;;;;5.77;3.23;;;;;;;16.33;100.00;96980.94;4994318;28;20207;-77
2023/07/25 03:35:28;;;;;;;4.60;3.23;;;;;;;16.28;100.00;96989.81;4993754;28;20233;-77
2023/07/25 03:37:55;;;;;;;3.73;2.90;;;;;;;16.30;100.00;96993.03;4993559;28;20700;-77
2023/07/25 03:40:21;;;;;;;4.30;2.90;;;;;;;16.36;100.00;96986.53;4993865;28;20682;-77
2023/07/25 03:42:48;;;;;;;3.43;3.07;;;;;;;16.39;100.00;97002.06;4993776;28;20209;-77
2023/07/25 03:45:14;;;;;;;4.10;3.37;;;;;;;16.36;100.00;97002.63;4993898;28;20207;-77
2023/07/25 03:47:40;;;;;;;4.80;3.37;;;;;;;16.31;100.00;96989.25;4993397;28;20674;-77
2023/07/25 03:50:07;;;;;;;3.73;3.13;;;;;;;16.28;100.00;96989.81;4993584;28;20246;-77
2023/07/25 03:52:34;;;;;;;3.70;3.40;;;;;;;16.29;100.00;96996.78;4993549;28;20294;-77
2023/07/25 03:55:00;;;;;;;5.73;3.20;;;;;;;16.29;100.00;96993.31;4993998;28;20228;-77
2023/07/25 03:57:26;;;;;;;4.70;3.60;;;;;;;16.33;100.00;96995.13;4993559;28;20208;-77
2023/07/25 03:59:53;;;;;;;4.97;3.10;;;;;;;16.31;100.00;96993.81;4993498;28;20710;-77
2023/07/25 04:02:19;;;;;;;3.40;3.10;;;;;;;16.29;100.00;96983.38;4993294;28;20694;-77
2023/07/25 04:04:45;;;;;;;3.40;3.10;;;;;;;16.30;100.00;96992.22;4993654;28;20203;-77
2023/07/25 04:07:12;;;;;;;3.00;2.57;;;;;;;16.34;100.00;96999.44;4993158;28;20213;-77
2023/07/25 04:09:38;;;;;;;4.37;3.40;;;;;;;16.39;100.00;96991.34;4988172;28;20227;-77
2023/07/25 04:12:05;;;;;;;3.33;3.10;;;;;;;16.37;100.00;96990.81;4990024;28;20204;-77
2023/07/25 04:14:31;;;;;;;5.23;3.17;;;;;;;16.35;100.00;96982.25;4993754;28;20227;-77
2023/07/25 04:16:58;;;;;;;3.27;2.97;;;;;;;16.32;100.00;96973.94;4993624;28;20214;-77
2023/07/25 04:19:24;;;;;;;3.30;3.00;;;;;;;16.31;100.00;96978.53;4992740;28;20234;-77
2023/07/25 04:21:50;;;;;;;5.07;3.10;;;;;;;16.30;100.00;96984.19;4992569;28;20214;-77
2023/07/25 04:24:17;;;;;;;5.50;3.00;;;;;;;16.33;100.00;96980.94;4993403;28;20202;-77
2023/07/25 04:26:43;;;;;;;3.33;3.03;;;;;;;16.37;100.00;96990.03;4992671;28;20207;-77
2023/07/25 04:29:10;;;;;;;3.80;2.93;;;;;;;16.38;100.00;96997.78;4993250;28;20230;-77
2023/07/25 04:31:36;;;;;;;3.77;3.10;;;;;;;16.38;100.00;96997.00;4992857;28;20210;-77
2023/07/25 04:34:03;;;;;;;3.30;3.00;;;;;;;16.37;100.00;96993.50;4991991;28;20225;-77
2023/07/25 04:36:29;;;;;;;3.90;2.80;;;;;;;16.38;100.00;97000.44;4994557;28;20294;-77
2023/07/25 04:38:57;;;;;;;3.00;2.57;;;;;;;16.39;100.00;97006.63;4996824;28;20223;-77
2023/07/25 04:41:23;;;;;;;3.20;2.60;;;;;;;16.37;100.00;97004.22;4996764;28;20203;-77
2023/07/25 04:43:50;;;;;;;2.90;2.70;;;;;;;16.40;100.00;97002.91;4996576;28;20206;-77
2023/07/25 04:46:16;;;;;;;3.07;2.77;;;;;;;16.41;100.00;97007.16;4996760;28;20209;-78
2023/07/25 04:48:43;;;;;;;4.30;3.20;;;;;;;16.40;100.00;97009.06;4996622;28;20249;-77
2023/07/25 04:51:09;;;;;;;4.00;2.90;;;;;;;16.45;100.00;96994.78;4996665;28;20211;-77
2023/07/25 04:53:36;;;;;;;4.83;2.97;;;;;;;16.51;100.00;97002.53;4996873;28;20294;-77
2023/07/25 04:56:03;;;;;;;5.27;3.07;;;;;;;16.46;100.00;97001.78;4996166;28;20223;-77
2023/07/25 04:58:29;;;;;;;3.07;2.60;;;;;;;16.50;100.00;97003.63;4993025;28;20698;-78
2023/07/25 05:00:56;;;;;;;3.17;2.87;;;;;;;16.51;100.00;97001.75;4996481;28;20667;-78
2023/07/25 05:03:23;;;;;;;4.57;2.97;;;;;;;16.53;100.00;97008.44;4996177;28;20239;-78
2023/07/25 05:05:52;;;;;;;3.90;3.27;;;;;;;16.53;100.00;97005.75;4996107;28;20256;-78
2023/07/25 05:08:18;;;;;;;5.57;3.20;;;;;;;16.54;100.00;96998.47;4996362;28;20249;-78
2023/07/25 05:10:45;;;;;;;5.97;3.30;;;;;;;16.51;100.00;96999.06;4996693;28;20214;-78
2023/07/25 05:13:11;;;;;;;4.47;3.10;;;;;;;16.55;100.00;97003.56;4997096;28;20214;-79
2023/07/25 05:15:38;;;;;;;4.10;3.20;;;;;;;16.56;100.00;97005.16;4996717;28;20230;-79
2023/07/25 05:18:04;;;;;;;3.40;3.10;;;;;;;16.58;100.00;97004.88;4996395;28;20218;-79
2023/07/25 05:20:31;;;;;;;4.67;3.07;;;;;;;16.60;100.00;97008.88;4996191;28;20203;-78
2023/07/25 05:22:57;;;;;;;4.47;3.23;;;;;;;16.65;100.00;97006.16;4996011;28;20243;-78
2023/07/25 05:25:23;;;;;;;4.00;3.00;;;;;;;16.59;100.00;97020.72;4995684;28;20213;-78
2023/07/25 05:27:50;;;;;;;5.57;3.27;;;;;;;16.60;100.00;97019.63;4995647;28;20207;-78
2023/07/25 05:30:16;;;;;;;3.50;3.20;;;;;;;16.65;100.00;97016.09;4998583;28;20229;-79
2023/07/25 05:32:43;;;;;;;6.23;3.43;;;;;;;16.63;100.00;97013.69;4999654;28;20218;-79
2023/07/25 05:35:09;;;;;;;5.70;3.20;;;;;;;16.64;100.00;97014.50;4999439;28;20229;-79
2023/07/25 05:37:39;;;;;;;4.77;3.27;;;;;;;16.68;100.00;97019.00;4999588;28;20215;-79
2023/07/25 05:40:07;;;;;;;4.47;3.17;;;;;;;16.72;100.00;97014.69;4998637;28;20227;-79
2023/07/25 05:42:34;;;;;;;4.40;2.80;;;;;;;16.74;100.00;97014.41;4998004;28;20211;-78
2023/07/25 05:45:01;;;;;;;6.70;3.73;;;;;;;16.72;100.00;97008.50;4997532;28;20290;-79
2023/07/25 05:47:30;;;;;;;3.70;3.37;;;;;;;16.75;100.00;97006.09;4997230;28;20207;-78
2023/07/25 05:49:57;;;;;;;3.77;3.33;;;;;;;16.78;100.00;97010.09;4997815;28;20243;-78
2023/07/25 05:52:24;;;;;;;4.80;3.60;;;;;;;16.70;100.00;97024.88;4996379;28;20211;-78
2023/07/25 05:54:51;;;;;;;7.10;4.20;;;;;;;16.67;100.00;97016.59;4995233;28;20581;-77
2023/07/25 05:57:17;;;;;;;6.90;3.70;;;;;;;16.66;100.00;97013.16;4995634;28;20261;-78
2023/07/25 05:59:44;;;;;;;4.53;4.00;;;;;;;16.68;100.00;97023.56;4995561;28;20231;-78
2023/07/25 06:02:11;;;;;;;4.60;4.07;;;;;;;16.63;100.00;97016.38;4995359;28;20214;-78
2023/07/25 06:04:37;;;;;;;6.57;4.20;;;;;;;16.59;100.00;97015.34;4995478;28;20219;-77
2023/07/25 06:07:04;;;;;;;7.33;4.10;;;;;;;16.63;100.00;97002.97;4995848;28;20217;-77
2023/07/25 06:09:30;;;;;;;5.23;3.83;;;;;;;16.70;100.00;96991.91;4995279;28;20258;-77
2023/07/25 06:11:56;;;;;;;5.67;4.17;;;;;;;16.72;100.00;96989.72;4995393;28;20214;-77
2023/07/25 06:14:23;;;;;;;4.53;4.13;;;;;;;16.61;100.00;96997.06;4995389;28;20212;-77
2023/07/25 06:16:49;;;;;;;5.70;4.40;;;;;;;16.70;100.00;97002.63;4995479;28;20208;-77
2023/07/25 06:19:15;;;;;;;5.03;4.00;;;;;;;16.72;100.00;97003.94;4994435;28;20578;-77
2023/07/25 06:21:42;;;;;;;5.67;4.57;;;;;;;16.78;100.00;97007.41;4994671;28;20222;-77
2023/07/25 06:24:08;;;;;;;5.47;3.83;;;;;;;16.78;100.00;97005.50;4994497;28;20207;-77
2023/07/25 06:26:34;;;;;;;5.33;3.93;;;;;;;16.77;100.00;97008.47;4995171;28;20271;-77
2023/07/25 06:29:01;;;;;;;5.10;4.13;;;;;;;16.85;100.00;97010.53;4995061;28;20706;-77
2023/07/25 06:31:27;;;;;;;5.80;4.33;;;;;;;16.88;100.00;97008.06;4994808;28;20207;-78
2023/07/25 06:33:54;;;;;;;6.10;4.27;;;;;;;16.82;100.00;96998.47;4994372;28;20212;-77
2023/07/25 06:36:20;;;;;;;5.30;4.20;;;;;;;16.89;100.00;97006.19;4994478;28;20588;-77
2023/07/25 06:38:46;;;;;;;6.47;4.07;;;;;;;16.90;100.00;97013.97;4995468;28;20591;-81
2023/07/25 06:41:13;;;;;;;4.60;3.97;;;;;;;16.92;100.00;97017.16;4996748;28;20213;-74
2023/07/25 06:43:39;;;;;;;6.47;3.83;;;;;;;16.90;100.00;97008.59;4995667;28;20588;-74
2023/07/25 06:46:10;;;;;;;6.87;4.33;;;;;;;16.90;100.00;97005.94;4996283;28;20619;-74
2023/07/25 06:48:36;;;;;;;5.30;4.30;;;;;;;16.89;100.00;96998.16;4997038;28;20239;-75
2023/07/25 06:51:02;;;;;;;5.13;4.00;;;;;;;16.87;100.00;97009.16;4995816;28;20585;-72
2023/07/25 06:53:33;;;;;;;4.80;4.00;;;;;;;16.80;100.00;97013.28;4995849;28;20294;-72
2023/07/25 06:55:59;;;;;;;6.17;4.23;;;;;;;16.79;100.00;97015.13;4996773;28;20211;-72
2023/07/25 06:58:26;;;;;;;5.47;4.40;;;;;;;16.74;100.00;96999.09;4994646;28;20605;-72
2023/07/25 07:00:54;;;;;;;4.97;4.50;;;;;;;16.59;100.00;96993.06;4995510;28;20248;-72
2023/07/25 07:03:21;;;;;;;4.93;3.93;;;;;;;16.63;100.00;96994.91;4994926;28;20203;-70
2023/07/25 07:05:56;;;;;;;5.97;4.63;;;;;;;16.71;100.00;96988.94;4994197;28;20203;-69
2023/07/25 07:08:24;;;;;;;4.97;4.00;;;;;;;16.67;100.00;97000.50;4994824;28;20227;-69
2023/07/25 07:10:59;;;;;;;4.10;3.70;;;;;;;16.67;100.00;96998.63;4994451;28;20207;-70
2023/07/25 07:13:25;;;;;;;4.80;4.03;;;;;;;16.69;100.00;96996.47;4994479;28;20206;-69
2023/07/25 07:15:51;;;;;;;5.57;5.13;;;;;;;16.75;100.00;96995.34;4994589;28;20230;-69
2023/07/25 07:18:23;;;;;;;6.10;4.17;;;;;;;16.87;100.00;97000.31;4994160;28;20579;-70
2023/07/25 07:20:50;;;;;;;4.93;3.67;;;;;;;16.84;100.00;96993.66;4993583;28;20195;-69
2023/07/25 07:23:17;;;;;;;3.50;3.20;;;;;;;16.83;100.00;96980.50;4994086;28;20741;-69
2023/07/25 07:25:45;;;;;;;7.17;3.87;;;;;;;16.86;100.00;96964.63;4994470;28;20199;-69
2023/07/25 07:28:12;;;;;;;3.47;3.10;;;;;;;16.79;100.00;96974.09;4994270;28;20290;-74
2023/07/25 07:30:38;;;;;;;4.03;3.23;;;;;;;16.79;100.00;96972.19;4994183;28;20211;-69
2023/07/25 07:33:04;;;;;;;3.57;3.27;;;;;;;16.83;100.00;96967.88;4994393;28;20211;-69
2023/07/25 07:35:31;;;;;;;8.90;3.53;;;;;;;16.78;100.00;96965.22;4994162;28;20225;-70
2023/07/25 07:37:58;;;;;;;6.07;3.73;;;;;;;16.80;100.00;96973.00;4994254;28;20210;-70
2023/07/25 07:40:25;;;;;;;4.80;3.80;;;;;;;16.80;100.00;96978.38;4994374;28;20207;-69
2023/07/25 07:42:51;;;;;;;5.37;3.53;;;;;;;16.95;100.00;96973.66;4993926;28;20240;-69
2023/07/25 07:45:17;;;;;;;7.57;3.73;;;;;;;16.99;100.00;96968.50;4994391;28;20305;-72
2023/07/25 07:47:44;;;;;;;5.17;3.70;;;;;;;17.07;100.00;96960.63;4995402;28;20203;-72
2023/07/25 07:50:10;;;;;;;4.70;3.80;;;;;;;17.15;100.00;96957.28;4994663;28;20235;-71
2023/07/25 07:52:40;;;;;;;5.83;3.90;;;;;;;17.35;100.00;96957.06;4995243;28;20215;-71
2023/07/25 07:55:11;;;;;;;4.40;3.50;;;;;;;17.63;100.00;96958.88;4995851;28;20219;-72
2023/07/25 07:57:42;;;;;;;5.17;3.10;;;;;;;17.69;100.00;96952.31;4994904;28;20195;-71
2023/07/25 08:00:09;;;;;;;4.10;3.40;;;;;;;17.85;100.00;96961.78;4995780;28;20231;-71
2023/07/25 08:02:35;;;;;;;4.53;3.00;;;;;;;17.96;100.00;96965.91;4994294;28;20235;-70
2023/07/25 08:05:02;;;;;;;4.20;2.77;;;;;;;18.20;100.00;96971.19;4994342;28;20214;-71
2023/07/25 08:07:28;;;;;;;3.00;2.80;;;;;;;18.41;100.00;96967.91;4994738;28;20234;-72
2023/07/25 08:09:55;;;;;;;4.03;2.53;;;;;;;18.48;100.00;96979.09;4995164;28;20237;-72
2023/07/25 08:12:22;;;;;;;4.57;3.73;;;;;;;18.68;100.00;96981.44;4998271;28;20615;-72
2023/07/25 08:14:49;;;;;;;2.67;2.47;;;;;;;18.78;100.00;96980.47;4998135;28;20211;-71
2023/07/25 08:17:15;;;;;;;3.83;2.70;;;;;;;18.82;100.00;96979.56;4997713;28;20223;-69
2023/07/25 08:19:42;;;;;;;4.80;2.97;;;;;;;18.75;100.00;96975.66;4997326;28;20234;-69
2023/07/25 08:22:10;;;;;;;3.83;3.00;;;;;;;18.63;100.00;96965.38;4997781;28;20207;-69
2023/07/25 08:24:36;;;;;;;4.03;2.90;;;;;;;18.48;100.00;96964.84;4997667;28;20207;-69
2023/07/25 08:27:03;;;;;;;3.10;2.80;;;;;;;18.47;100.00;96963.25;4997603;28;20211;-69
2023/07/25 08:29:29;;;;;;;3.30;2.10;;;;;;;18.45;100.00;96960.03;4997604;28;20237;-69
2023/07/25 08:31:55;;;;;;;9.37;8.47;;;;;;;18.41;100.00;96969.81;4997416;28;20214;-69
2023/07/25 08:34:22;;;;;;;3.07;2.27;;;;;;;18.44;100.00;96969.22;4997577;28;20297;-69
2023/07/25 08:36:49;;;;;;;4.17;3.00;;;;;;;18.56;100.00;96964.97;4997114;28;20231;-69
2023/07/25 08:39:15;;;;;;;2.73;2.20;;;;;;;18.51;100.00;96970.41;4997321;28;20228;-69
2023/07/25 08:41:51;;;;;;;2.67;2.03;;;;;;;18.58;100.00;96964.66;4997284;28;20207;-69
2023/07/25 08:44:21;;;;;;;2.90;2.17;;;;;;;18.64;100.00;96966.97;4997066;28;20195;-68
2023/07/25 08:46:53;;;;;;;3.57;2.47;;;;;;;18.84;100.00;96969.31;4997458;28;20207;-69
2023/07/25 08:49:24;;;;;;;3.20;2.33;;;;;;;18.80;100.00;96962.94;4996894;28;20670;-69
2023/07/25 08:51:54;;;;;;;3.23;2.50;;;;;;;18.74;100.00;96966.78;4996751;28;20647;-69
2023/07/25 08:54:38;;;;;;;2.70;1.97;;;;;;;18.96;100.00;96964.22;4997195;28;20207;-69
2023/07/25 08:57:05;;;;;;;4.37;2.47;;;;;;;19.08;100.00;96969.94;4996617;28;20540;-68
2023/07/25 08:59:32;;;;;;;2.57;2.37;;;;;;;19.24;100.00;96962.38;4996807;28;20231;-68
2023/07/25 09:01:59;;;;;;;18.20;16.37;;;;;;;19.13;100.00;96967.13;4997316;28;20207;-69
2023/07/25 09:04:26;;;;;;;3.73;2.83;;;;;;;19.05;100.00;96965.13;4996892;28;20203;-70
2023/07/25 09:06:53;;;;;;;4.43;2.40;;;;;;;19.02;100.00;96971.13;4996735;28;20207;-70
2023/07/25 09:09:20;;;;;;;3.10;2.30;;;;;;;19.00;100.00;96965.22;4995862;28;20239;-69
2023/07/25 09:11:46;;;;;;;2.13;2.03;;;;;;;19.09;100.00;96974.22;4996845;28;20207;-69
2023/07/25 09:14:13;;;;;;;3.53;2.10;;;;;;;18.94;100.00;96962.94;4996814;28;20203;-69
2023/07/25 09:16:40;;;;;;;2.60;2.33;;;;;;;18.85;100.00;96954.75;4996746;28;20227;-69
2023/07/25 09:19:07;;;;;;;3.13;1.77;;;;;;;18.85;100.00;96959.31;4996506;28;20234;-70
2023/07/25 09:21:33;;;;;;;2.43;2.23;;;;;;;18.87;100.00;96954.47;4996141;28;20211;-70
2023/07/25 09:24:00;;;;;;;2.27;2.07;;;;;;;18.98;100.00;96958.53;4996811;28;20211;-69
2023/07/25 09:26:29;;;;;;;2.90;1.83;;;;;;;18.97;100.00;96955.06;4996898;28;20203;-70
2023/07/25 09:28:58;;;;;;;2.23;1.80;;;;;;;19.08;100.00;96950.25;4996737;28;20227;-70
2023/07/25 09:31:25;;;;;;;2.70;1.73;;;;;;;19.14;100.00;96952.56;4996511;28;20219;-72
2023/07/25 09:33:54;;;;;;;4.53;2.20;;;;;;;19.51;100.00;96948.88;4996405;28;20298;-72
2023/07/25 09:36:20;;;;;;;2.57;1.73;;;;;;;19.58;100.00;96943.06;4996329;28;20330;-69
2023/07/25 09:38:53;;;;;;;1.67;1.57;;;;;;;19.63;100.00;96949.16;4996184;28;20238;-69
2023/07/25 09:41:25;;;;;;;1.67;1.57;;;;;;;19.43;100.00;96946.88;4995887;28;20701;-70
2023/07/25 09:43:53;;;;;;;1.73;1.50;;;;;;;19.49;100.00;96942.97;4995871;28;20631;-70
2023/07/25 09:46:23;;;;;;;1.70;1.47;;;;;;;19.38;100.00;96949.69;4995189;28;20570;-69
2023/07/25 09:48:53;;;;;;;2.83;1.87;;;;;;;19.51;100.00;96955.03;4995874;28;20227;-69
2023/07/25 09:51:20;;;;;;;2.67;1.70;;;;;;;19.74;100.00;96961.31;4996129;28;20214;-71
2023/07/25 09:53:53;;;;;;;3.63;2.00;;;;;;;19.63;100.00;96958.03;4994972;28;20679;-71
2023/07/25 09:56:26;;;;;;;2.53;1.50;;;;;;;19.73;100.00;96965.13;4995764;28;20227;-70
2023/07/25 09:58:53;;;;;;;1.63;1.50;;;;;;;19.85;100.00;96957.28;4995130;28;20238;-70
2023/07/25 10:01:21;;;;;;;2.60;1.90;;;;;;;20.10;100.00;96953.22;4995344;28;20242;-71
2023/07/25 10:03:49;;;;;;;2.07;1.80;;;;;;;19.95;100.00;96951.69;4994463;28;20207;-71
2023/07/25 10:06:17;;;;;;;1.90;1.50;;;;;;;20.13;100.00;96958.03;4995352;28;20285;-69
2023/07/25 10:08:45;;;;;;;2.20;1.57;;;;;;;20.06;100.00;96944.13;4995067;28;20658;-69
2023/07/25 10:11:13;;;;;;;1.97;1.77;;;;;;;20.15;100.00;96945.00;4995128;28;20211;-69
2023/07/25 10:13:43;;;;;;;3.43;1.60;;;;;;;20.24;100.00;96937.78;4996337;28;20215;-72
2023/07/25 10:16:15;;;;;;;2.23;1.47;;;;;;;20.27;100.00;96942.56;4996960;28;20227;-72
2023/07/25 10:18:43;;;;;;;2.80;1.80;;;;;;;20.08;100.00;96941.94;4994945;28;20638;-72
2023/07/25 10:21:12;;;;;;;2.57;1.47;;;;;;;20.28;100.00;96944.16;4996086;28;20223;-72
2023/07/25 10:23:41;;;;;;;2.83;1.50;;;;;;;20.36;100.00;96943.44;4995508;28;20215;-72
2023/07/25 10:26:16;;;;;;;2.87;1.63;;;;;;;20.24;100.00;96945.88;4994403;28;20207;-73
2023/07/25 10:28:45;;;;;;;2.53;1.80;;;;;;;20.23;100.00;96942.41;4994284;28;20666;-72
2023/07/25 10:31:33;;;;;;;2.77;1.90;;;;;;;20.34;100.00;96942.94;4994788;28;20203;-72
2023/07/25 10:34:01;;;;;;;2.10;1.60;;;;;;;20.50;100.00;96938.75;4995324;28;20195;-72
2023/07/25 10:36:29;;;;;;;2.30;1.90;;;;;;;20.60;100.00;96942.00;4996166;28;20227;-72
2023/07/25 10:39:09;;;;;;;1.83;1.40;;;;;;;20.73;100.00;96940.31;4995443;28;20222;-72
2023/07/25 10:41:36;;;;;;;1.70;1.40;;;;;;;20.51;100.00;96945.75;4995433;28;20202;-72
2023/07/25 10:44:05;;;;;;;2.60;1.70;;;;;;;20.52;100.00;96945.44;4995436;28;20550;-72
2023/07/25 10:46:38;;;;;;;1.80;1.70;;;;;;;20.46;100.00;96945.88;4994327;28;20214;-72
2023/07/25 10:49:15;;;;;;;3.00;1.40;;;;;;;20.32;100.00;96962.16;4994084;28;20356;-72
2023/07/25 10:51:51;;;;;;;3.50;1.60;;;;;;;20.18;100.00;96966.81;4993837;28;20214;-72
2023/07/25 10:54:26;;;;;;;1.20;1.10;;;;;;;19.93;100.00;96964.66;4995597;28;20682;-72
2023/07/25 10:57:16;;;;;;;1.20;1.10;;;;;;;19.71;100.00;96961.91;4995518;28;20716;-72
2023/07/25 10:59:59;;;;;;;1.40;1.30;;;;;;;19.59;100.00;96951.66;4994801;28;20237;-71
2023/07/25 11:02:53;;;;;;;1.47;1.37;;;;;;;19.43;100.00;96942.31;4994957;28;20242;-72
2023/07/25 11:05:21;;;;;;;2.73;1.80;;;;;;;19.37;100.00;96937.31;4994312;28;20302;-71
2023/07/25 11:07:48;;;;;;;2.60;2.07;;;;;;;19.36;100.00;96933.81;4994901;28;20210;-71
2023/07/25 11:10:26;;;;;;;1.87;1.40;;;;;;;19.40;100.00;96937.50;4995238;28;20314;-71
2023/07/25 11:12:55;;;;;;;2.00;1.50;;;;;;;19.57;100.00;96936.09;4994908;28;20666;-71
2023/07/25 11:15:23;;;;;;;1.53;1.43;;;;;;;19.79;100.00;96939.63;4994858;28;20207;-71
2023/07/25 11:17:50;;;;;;;1.60;1.20;;;;;;;20.12;100.00;96945.66;4994654;28;20254;-71
2023/07/25 11:20:19;;;;;;;1.80;1.30;;;;;;;20.45;100.00;96944.28;4994621;28;20705;-71
2023/07/25 11:22:49;;;;;;;1.40;1.30;;;;;;;20.61;100.00;96948.22;4994455;28;20211;-69
2023/07/25 11:25:16;;;;;;;1.40;1.23;;;;;;;20.93;100.00;96940.59;4994413;28;20218;-70